Webcam Richtung Westen

Webcam27

Webcam Richtung Norden

Webcam36

Webcam Richtung Osten

Webcam09

Wetter(Würzburg):
232000Z AUTO 05008G14KT 50KM BKN170 20/16 Q1017
		
Wed 23.06.2021, 20:00 UTC

Sichtweite bis zu 50 km
Wind aus 50° mit 08kt, in Böen bis zu 14kt
unterbrochene Wolkendecke (5-7 Achtel) bei 17000 Fuß
Temperatur: 20 °C
Taupunkt: 16 °C
QNH: 1017 hPa
                         Heute        Morgen
                         23.06        24.06
--------------------------------------------
Beginn der Dämmerung     02:28        02:28
Sonnenaufgang            03:12        03:13
Sonnenuntergang          19:32        19:32
Ende der Dämmerung       20:17        20:17

Alle Zeiten in UTC